createdAt,value
2019-02-17T00:00:31.392Z,101356.96
2019-02-17T00:02:59.158Z,101354.45
2019-02-17T00:05:26.935Z,101352.80
2019-02-17T00:07:54.896Z,101354.63
2019-02-17T00:10:22.676Z,101354.46
2019-02-17T00:12:50.445Z,101354.31
2019-02-17T00:15:18.210Z,101359.34
2019-02-17T00:17:45.932Z,101353.47
2019-02-17T00:20:13.680Z,101352.27
2019-02-17T00:22:41.441Z,101357.12
2019-02-17T00:25:09.175Z,101360.45
2019-02-17T00:27:36.927Z,101356.44
2019-02-17T00:30:04.907Z,101363.95
2019-02-17T00:32:32.835Z,101355.93
2019-02-17T00:35:00.569Z,101359.45
2019-02-17T00:37:28.511Z,101363.96
2019-02-17T00:39:56.263Z,101355.29
2019-02-17T00:42:24.191Z,101363.49
2019-02-17T00:44:52.095Z,101366.32
2019-02-17T00:47:20.091Z,101353.77
2019-02-17T00:49:47.867Z,101367.83
2019-02-17T00:52:15.630Z,101370.02
2019-02-17T00:54:43.365Z,101374.50
2019-02-17T00:57:11.145Z,101367.51
2019-02-17T00:59:38.920Z,101366.17
2019-02-17T01:02:06.676Z,101364.15
2019-02-17T01:04:34.429Z,101371.84
2019-02-17T01:07:02.194Z,101378.54
2019-02-17T01:09:30.119Z,101376.83
2019-02-17T01:11:57.922Z,101377.66
2019-02-17T01:14:25.685Z,101377.88
2019-02-17T01:16:53.555Z,101376.66
2019-02-17T01:19:24.294Z,101379.85
2019-02-17T01:21:52.095Z,101373.30
2019-02-17T01:24:20.006Z,101379.63
2019-02-17T01:26:47.775Z,101377.30
2019-02-17T01:29:20.548Z,101379.45
2019-02-17T01:31:45.296Z,101377.93
2019-02-17T01:34:13.346Z,101377.27
2019-02-17T01:36:41.359Z,101377.44
2019-02-17T01:39:09.127Z,101377.77
2019-02-17T01:41:36.876Z,101370.92
2019-02-17T01:44:04.874Z,101371.03
2019-02-17T01:46:32.620Z,101377.58
2019-02-17T01:49:00.399Z,101374.22
2019-02-17T01:51:28.130Z,101365.89
2019-02-17T01:53:55.903Z,101360.67
2019-02-17T01:56:23.654Z,101368.22
2019-02-17T01:58:51.437Z,101371.05
2019-02-17T02:01:19.177Z,101365.36
2019-02-17T02:03:46.953Z,101367.02
2019-02-17T02:06:14.859Z,101369.83
2019-02-17T02:08:42.649Z,101360.33
2019-02-17T02:11:10.613Z,101361.66
2019-02-17T02:13:38.391Z,101358.31
2019-02-17T02:16:06.115Z,101353.50
2019-02-17T02:18:34.073Z,101351.98
2019-02-17T02:21:01.961Z,101348.29
2019-02-17T02:23:29.693Z,101346.93
2019-02-17T02:25:57.586Z,101342.59
2019-02-17T02:28:25.351Z,101345.92
2019-02-17T02:30:53.100Z,101342.92
2019-02-17T02:33:20.864Z,101343.39
2019-02-17T02:35:48.576Z,101341.20
2019-02-17T02:38:16.380Z,101337.22
2019-02-17T02:40:44.104Z,101334.87
2019-02-17T02:43:11.856Z,101335.80
2019-02-17T02:45:40.831Z,101333.97
2019-02-17T02:48:08.601Z,101332.47
2019-02-17T02:50:36.516Z,101330.34
2019-02-17T02:53:04.273Z,101326.95
2019-02-17T02:55:32.204Z,101322.23
2019-02-17T02:57:59.929Z,101322.59
2019-02-17T03:00:27.878Z,101325.86
2019-02-17T03:02:55.641Z,101323.25
2019-02-17T03:05:23.489Z,101320.16
2019-02-17T03:07:51.246Z,101324.66
2019-02-17T03:10:19.191Z,101315.30
2019-02-17T03:12:47.011Z,101327.48
2019-02-17T03:15:15.054Z,101317.61
2019-02-17T03:17:42.814Z,101317.45
2019-02-17T03:20:10.736Z,101318.98
2019-02-17T03:22:38.455Z,101318.63
2019-02-17T03:25:08.130Z,101321.91
2019-02-17T03:27:35.877Z,101320.78
2019-02-17T03:30:06.181Z,101322.92
2019-02-17T03:32:34.320Z,101318.06
2019-02-17T03:35:02.092Z,101314.71
2019-02-17T03:37:30.075Z,101312.53
2019-02-17T03:39:57.864Z,101309.89
2019-02-17T03:42:25.912Z,101315.20
2019-02-17T03:44:53.862Z,101322.33
2019-02-17T03:47:21.626Z,101320.14
2019-02-17T03:49:49.612Z,101313.79
2019-02-17T03:52:17.519Z,101314.96
2019-02-17T03:54:45.297Z,101318.60
2019-02-17T03:57:13.239Z,101323.22
2019-02-17T03:59:40.994Z,101327.70
2019-02-17T04:02:08.937Z,101327.91
2019-02-17T04:04:36.683Z,101328.72
2019-02-17T04:07:04.635Z,101323.58
2019-02-17T04:09:32.348Z,101319.89
2019-02-17T04:12:00.333Z,101327.38
2019-02-17T04:14:28.083Z,101326.48
2019-02-17T04:16:55.833Z,101327.09
2019-02-17T04:19:23.621Z,101324.25
2019-02-17T04:21:51.709Z,101333.17
2019-02-17T04:24:19.493Z,101334.45
2019-02-17T04:26:53.810Z,101325.97
2019-02-17T04:29:21.597Z,101318.92
2019-02-17T04:31:49.669Z,101327.45
2019-02-17T04:34:17.403Z,101328.32
2019-02-17T04:36:45.329Z,101327.03
2019-02-17T04:39:13.055Z,101320.56
2019-02-17T04:41:40.843Z,101326.91
2019-02-17T04:44:08.666Z,101328.67
2019-02-17T04:46:36.459Z,101327.52
2019-02-17T04:49:04.233Z,101328.14
2019-02-17T04:51:32.190Z,101318.06
2019-02-17T04:53:59.878Z,101322.86
2019-02-17T04:56:27.839Z,101314.69
2019-02-17T04:58:55.569Z,101315.59
2019-02-17T05:01:23.331Z,101312.56
2019-02-17T05:03:51.056Z,101314.00
2019-02-17T05:06:18.845Z,101313.20
2019-02-17T05:08:46.757Z,101314.38
2019-02-17T05:11:14.530Z,101310.48
2019-02-17T05:13:42.280Z,101312.88
2019-02-17T05:16:10.083Z,101315.23
2019-02-17T05:18:37.839Z,101311.92
2019-02-17T05:21:05.758Z,101307.70
2019-02-17T05:23:33.720Z,101307.18
2019-02-17T05:26:01.621Z,101310.74
2019-02-17T05:28:29.386Z,101311.44
2019-02-17T05:30:57.186Z,101307.06
2019-02-17T05:33:25.214Z,101313.90
2019-02-17T05:35:52.991Z,101307.05
2019-02-17T05:38:20.942Z,101312.23
2019-02-17T05:40:48.734Z,101310.37
2019-02-17T05:43:16.515Z,101317.53
2019-02-17T05:45:44.285Z,101318.33
2019-02-17T05:48:12.242Z,101316.95
2019-02-17T05:50:39.991Z,101323.13
2019-02-17T05:53:07.947Z,101333.78
2019-02-17T05:55:35.731Z,101325.78
2019-02-17T05:58:03.506Z,101319.98
2019-02-17T06:00:32.984Z,101332.25
2019-02-17T06:03:00.858Z,101333.38
2019-02-17T06:05:28.629Z,101329.53
2019-02-17T06:07:56.566Z,101335.72
2019-02-17T06:10:24.338Z,101332.67
2019-02-17T06:12:52.156Z,101337.69
2019-02-17T06:15:19.937Z,101331.02
2019-02-17T06:17:47.758Z,101331.71
2019-02-17T06:20:15.528Z,101338.80
2019-02-17T06:22:43.488Z,101338.73
2019-02-17T06:25:11.264Z,101349.39
2019-02-17T06:27:39.063Z,101349.78
2019-02-17T06:30:07.164Z,101347.31
2019-02-17T06:32:35.201Z,101353.16
2019-02-17T06:35:03.002Z,101350.67
2019-02-17T06:37:30.935Z,101355.52
2019-02-17T06:39:58.919Z,101357.03
2019-02-17T06:42:26.642Z,101355.00
2019-02-17T06:44:54.491Z,101363.61
2019-02-17T06:47:26.250Z,101358.66
2019-02-17T06:49:54.198Z,101363.78
2019-02-17T06:52:22.247Z,101357.16
2019-02-17T06:55:15.755Z,101356.95
2019-02-17T06:57:43.563Z,101360.22
2019-02-17T07:00:39.962Z,101359.27
2019-02-17T07:03:07.731Z,101354.32
2019-02-17T07:05:56.738Z,101353.11
2019-02-17T07:08:24.932Z,101361.76
2019-02-17T07:10:52.677Z,101357.81
2019-02-17T07:13:20.429Z,101355.27
2019-02-17T07:15:48.228Z,101359.50
2019-02-17T07:18:15.947Z,101360.72
2019-02-17T07:20:43.886Z,101364.83
2019-02-17T07:23:11.811Z,101360.33
2019-02-17T07:25:39.739Z,101358.77
2019-02-17T07:28:07.489Z,101360.70
2019-02-17T07:30:35.271Z,101362.96
2019-02-17T07:33:03.125Z,101365.80
2019-02-17T07:35:31.119Z,101368.70
2019-02-17T07:37:59.040Z,101366.36
2019-02-17T07:40:26.907Z,101360.84
2019-02-17T07:42:54.736Z,101360.19
2019-02-17T07:45:22.668Z,101358.23
2019-02-17T07:47:50.576Z,101355.03
2019-02-17T07:50:18.572Z,101362.77
2019-02-17T07:52:46.385Z,101349.61
2019-02-17T07:55:14.193Z,101343.92
2019-02-17T07:57:42.015Z,101351.45
2019-02-17T08:00:09.856Z,101352.51
2019-02-17T08:02:37.645Z,101347.83
2019-02-17T08:05:07.456Z,101356.20
2019-02-17T08:07:35.302Z,101353.59
2019-02-17T08:10:03.501Z,101353.10
2019-02-17T08:12:31.363Z,101348.09
2019-02-17T08:14:59.357Z,101348.26
2019-02-17T08:17:27.128Z,101352.80
2019-02-17T08:19:54.918Z,101360.66
2019-02-17T08:22:22.703Z,101354.46
2019-02-17T08:24:50.456Z,101357.98
2019-02-17T08:27:18.225Z,101353.95
2019-02-17T08:29:46.015Z,101351.59
2019-02-17T08:32:13.804Z,101350.42
2019-02-17T08:34:41.551Z,101341.67
2019-02-17T08:37:09.335Z,101345.02
2019-02-17T08:39:37.118Z,101339.59
2019-02-17T08:42:05.077Z,101335.39
2019-02-17T08:44:32.841Z,101333.84
2019-02-17T08:47:00.669Z,101333.23
2019-02-17T08:49:28.425Z,101325.50
2019-02-17T08:51:56.263Z,101329.00
2019-02-17T08:54:24.033Z,101327.92
2019-02-17T08:56:51.842Z,101321.63
2019-02-17T08:59:19.598Z,101326.27
2019-02-17T09:01:47.391Z,101321.24
2019-02-17T09:04:15.317Z,101318.60
2019-02-17T09:06:43.347Z,101320.83
2019-02-17T09:09:11.107Z,101319.96
2019-02-17T09:11:38.885Z,101323.12
2019-02-17T09:14:06.649Z,101319.73
2019-02-17T09:16:34.551Z,101315.61
2019-02-17T09:19:02.320Z,101315.05
2019-02-17T09:21:30.548Z,101307.73
2019-02-17T09:23:58.343Z,101306.44
2019-02-17T09:26:26.275Z,101301.52
2019-02-17T09:28:54.113Z,101301.67
2019-02-17T09:31:21.974Z,101299.30
2019-02-17T09:33:49.860Z,101305.52
2019-02-17T09:36:17.629Z,101296.47
2019-02-17T09:38:45.465Z,101298.84
2019-02-17T09:41:13.333Z,101289.69
2019-02-17T09:43:41.105Z,101294.56
2019-02-17T09:46:09.068Z,101288.88
2019-02-17T09:48:36.912Z,101288.47
2019-02-17T09:51:04.699Z,101276.78
2019-02-17T09:53:32.465Z,101278.95
2019-02-17T09:56:00.302Z,101281.02
2019-02-17T09:58:28.073Z,101276.38
2019-02-17T10:00:55.862Z,101281.84
2019-02-17T10:03:23.626Z,101277.55
2019-02-17T10:05:51.400Z,101272.13
2019-02-17T10:08:19.152Z,101270.77
2019-02-17T10:10:47.053Z,101269.93
2019-02-17T10:13:14.842Z,101274.00
2019-02-17T10:15:43.105Z,101268.77
2019-02-17T10:18:10.893Z,101270.39
2019-02-17T10:20:38.707Z,101267.39
2019-02-17T10:23:06.518Z,101268.33
2019-02-17T10:25:34.255Z,101263.48
2019-02-17T10:28:02.032Z,101262.44
2019-02-17T10:31:09.220Z,101254.92
2019-02-17T10:33:37.109Z,101260.95
2019-02-17T10:36:04.877Z,101263.16
2019-02-17T10:38:32.692Z,101258.64
2019-02-17T10:41:00.444Z,101251.93
2019-02-17T10:43:28.251Z,101251.50
2019-02-17T10:45:56.012Z,101249.08
2019-02-17T10:48:23.772Z,101246.58
2019-02-17T10:50:51.553Z,101244.09
2019-02-17T10:53:19.337Z,101243.05
2019-02-17T10:55:47.083Z,101236.65
2019-02-17T10:58:14.930Z,101226.46
2019-02-17T11:00:42.883Z,101223.91
2019-02-17T11:03:10.745Z,101221.98
2019-02-17T11:05:38.507Z,101218.56
2019-02-17T11:08:06.303Z,101218.33
2019-02-17T11:10:34.114Z,101219.95
2019-02-17T11:13:02.727Z,101218.88
2019-02-17T11:15:31.235Z,101216.63
2019-02-17T11:17:59.010Z,101220.78
2019-02-17T11:20:26.827Z,101213.17
2019-02-17T11:22:54.570Z,101211.30
2019-02-17T11:25:22.371Z,101205.73
2019-02-17T11:27:50.134Z,101200.03
2019-02-17T11:30:18.003Z,101200.48
2019-02-17T11:32:45.759Z,101198.95
2019-02-17T11:35:13.737Z,101196.73
2019-02-17T11:37:41.533Z,101194.88
2019-02-17T11:40:10.390Z,101188.31
2019-02-17T11:42:38.234Z,101186.41
2019-02-17T11:45:08.791Z,101185.27
2019-02-17T11:47:36.661Z,101180.27
2019-02-17T11:50:04.969Z,101174.27
2019-02-17T11:52:32.750Z,101172.59
2019-02-17T11:55:00.623Z,101166.30
2019-02-17T11:57:28.416Z,101166.36
2019-02-17T11:59:56.316Z,101161.35
2019-02-17T12:02:25.267Z,101158.69
2019-02-17T12:04:53.298Z,101149.72
2019-02-17T12:07:21.088Z,101142.44
2019-02-17T12:09:49.006Z,101134.94
2019-02-17T12:12:16.869Z,101129.14
2019-02-17T12:14:44.644Z,101126.39
2019-02-17T12:17:12.444Z,101124.11
2019-02-17T12:19:40.226Z,101124.44
2019-02-17T12:22:23.583Z,101119.66
2019-02-17T12:25:00.251Z,101108.94
2019-02-17T12:27:32.664Z,101109.74
2019-02-17T12:30:04.513Z,101105.41
2019-02-17T12:32:32.329Z,101119.42
2019-02-17T12:35:00.214Z,101112.23
2019-02-17T12:37:28.053Z,101121.28
2019-02-17T12:39:55.843Z,101120.77
2019-02-17T12:42:23.639Z,101127.24
2019-02-17T12:44:51.443Z,101116.83
2019-02-17T12:47:19.239Z,101118.13
2019-02-17T12:49:47.013Z,101113.62
2019-02-17T12:52:14.799Z,101115.56
2019-02-17T12:54:42.592Z,101107.20
2019-02-17T12:57:10.429Z,101102.66
2019-02-17T12:59:39.011Z,101102.36
2019-02-17T13:02:06.835Z,101101.91
2019-02-17T13:04:34.590Z,101100.79
2019-02-17T13:07:02.683Z,101100.41
2019-02-17T13:09:30.607Z,101101.31
2019-02-17T13:11:58.499Z,101101.03
2019-02-17T13:14:26.337Z,101095.89
2019-02-17T13:16:54.123Z,101095.86
2019-02-17T13:19:21.888Z,101087.47
2019-02-17T13:21:49.777Z,101086.56
2019-02-17T13:24:17.586Z,101082.92
2019-02-17T13:26:45.381Z,101078.52
2019-02-17T13:29:13.182Z,101081.67
2019-02-17T13:31:40.962Z,101080.79
2019-02-17T13:34:08.747Z,101080.02
2019-02-17T13:36:36.551Z,101080.21
2019-02-17T13:39:06.243Z,101079.84
2019-02-17T13:41:34.012Z,101077.34
2019-02-17T13:44:02.086Z,101076.82
2019-02-17T13:46:29.907Z,101082.27
2019-02-17T13:48:57.746Z,101075.22
2019-02-17T13:51:25.791Z,101075.23
2019-02-17T13:53:53.735Z,101075.13
2019-02-17T13:56:21.520Z,101079.31
2019-02-17T13:58:50.121Z,101066.42
2019-02-17T14:01:17.969Z,101064.44
2019-02-17T14:03:48.758Z,101065.31
2019-02-17T14:06:15.568Z,101062.52
2019-02-17T14:08:43.375Z,101051.89
2019-02-17T14:11:11.156Z,101060.37
2019-02-17T14:13:39.053Z,101057.41
2019-02-17T14:16:06.814Z,101046.61
2019-02-17T14:18:34.675Z,101045.09
2019-02-17T14:21:02.508Z,101038.45
2019-02-17T14:23:30.314Z,101029.48
2019-02-17T14:25:58.088Z,101026.75
2019-02-17T14:28:25.979Z,101023.22
2019-02-17T14:30:53.789Z,101022.63
2019-02-17T14:33:21.584Z,101012.73
2019-02-17T14:35:49.437Z,101020.95
2019-02-17T14:38:17.214Z,101016.58
2019-02-17T14:40:45.045Z,101004.83
2019-02-17T14:43:12.873Z,101003.97
2019-02-17T14:45:40.759Z,101002.97
2019-02-17T14:48:08.501Z,101002.28
2019-02-17T14:50:36.317Z,101001.69
2019-02-17T14:53:04.081Z,100995.98
2019-02-17T14:55:31.843Z,100995.73
2019-02-17T14:58:05.589Z,100991.09
2019-02-17T15:00:29.371Z,100989.94
2019-02-17T15:02:57.177Z,100988.20
2019-02-17T15:05:24.946Z,100985.41
2019-02-17T15:07:52.692Z,100986.20
2019-02-17T15:10:20.516Z,100978.87
2019-02-17T15:12:48.315Z,100984.12
2019-02-17T15:15:16.138Z,100975.64
2019-02-17T15:17:43.931Z,100975.45
2019-02-17T15:20:12.078Z,100972.39
2019-02-17T15:22:39.907Z,100972.94
2019-02-17T15:25:11.221Z,100979.95
2019-02-17T15:27:38.961Z,100980.31
2019-02-17T15:30:09.553Z,100978.09
2019-02-17T15:32:37.363Z,100978.36
2019-02-17T15:35:05.494Z,100971.12
2019-02-17T15:37:33.295Z,100971.47
2019-02-17T15:40:01.108Z,100963.52
2019-02-17T15:42:28.901Z,100967.70
2019-02-17T15:44:56.675Z,100963.61
2019-02-17T15:47:24.464Z,100964.11
2019-02-17T15:49:52.257Z,100962.39
2019-02-17T15:52:20.155Z,100961.75
2019-02-17T15:54:48.020Z,100963.89
2019-02-17T15:57:15.784Z,100957.19
2019-02-17T15:59:43.576Z,100958.41
2019-02-17T16:02:11.318Z,100950.44
2019-02-17T16:04:39.134Z,100948.00
2019-02-17T16:07:07.028Z,100951.34
2019-02-17T16:09:34.961Z,100952.07
2019-02-17T16:12:02.784Z,100951.50
2019-02-17T16:14:30.979Z,100947.98
2019-02-17T16:16:58.768Z,100952.34
2019-02-17T16:19:26.569Z,100944.50
2019-02-17T16:21:54.334Z,100946.30
2019-02-17T16:24:22.088Z,100943.98
2019-02-17T16:26:49.871Z,100940.11
2019-02-17T16:29:17.665Z,100940.75
2019-02-17T16:31:45.494Z,100943.41
2019-02-17T16:34:13.288Z,100949.06
2019-02-17T16:36:41.082Z,100947.12
2019-02-17T16:39:11.985Z,100944.44
2019-02-17T16:41:39.798Z,100954.63
2019-02-17T16:44:07.606Z,100948.46
2019-02-17T16:46:35.390Z,100950.81
2019-02-17T16:49:03.694Z,100952.80
2019-02-17T16:51:31.519Z,100960.14
2019-02-17T16:53:59.345Z,100955.48
2019-02-17T16:56:27.155Z,100958.55
2019-02-17T16:58:54.983Z,100961.17
2019-02-17T17:01:22.819Z,100953.93
2019-02-17T17:03:50.587Z,100959.22
2019-02-17T17:06:18.469Z,100964.84
2019-02-17T17:08:46.277Z,100964.45
2019-02-17T17:11:14.087Z,100964.53
2019-02-17T17:13:41.893Z,100966.23
2019-02-17T17:16:09.661Z,100963.85
2019-02-17T17:18:37.435Z,100961.59
2019-02-17T17:21:05.339Z,100967.06
2019-02-17T17:23:33.382Z,100961.17
2019-02-17T17:26:01.153Z,100959.09
2019-02-17T17:28:28.929Z,100958.04
2019-02-17T17:30:56.737Z,100961.58
2019-02-17T17:33:24.609Z,100957.66
2019-02-17T17:35:52.402Z,100956.59
2019-02-17T17:38:20.929Z,100957.02
2019-02-17T17:40:48.888Z,100957.86
2019-02-17T17:43:16.668Z,100953.70
2019-02-17T17:45:44.471Z,100956.23
2019-02-17T17:48:12.256Z,100954.67
2019-02-17T17:50:40.064Z,100954.88
2019-02-17T17:53:07.974Z,100956.63
2019-02-17T17:55:35.729Z,100956.20
2019-02-17T17:58:03.511Z,100952.25
2019-02-17T18:00:32.989Z,100957.22
2019-02-17T18:03:00.745Z,100955.32
2019-02-17T18:05:28.554Z,100960.80
2019-02-17T18:07:56.331Z,100959.58
2019-02-17T18:10:25.373Z,100955.45
2019-02-17T18:12:53.112Z,100959.50
2019-02-17T18:15:21.104Z,100957.73
2019-02-17T18:17:54.703Z,100962.56
2019-02-17T18:20:18.648Z,100961.94
2019-02-17T18:22:46.488Z,100960.59
2019-02-17T18:25:14.566Z,100957.72
2019-02-17T18:27:42.325Z,100958.86
2019-02-17T18:30:12.022Z,100951.83
2019-02-17T18:32:39.915Z,100950.42
2019-02-17T18:35:08.246Z,100950.83
2019-02-17T18:37:36.098Z,100946.23
2019-02-17T18:40:04.401Z,100950.05
2019-02-17T18:42:32.186Z,100953.26
2019-02-17T18:44:59.992Z,100954.59
2019-02-17T18:47:27.751Z,100955.48
2019-02-17T18:49:55.557Z,100945.97
2019-02-17T18:52:23.322Z,100945.30
2019-02-17T18:54:51.134Z,100950.92
2019-02-17T18:57:18.926Z,100948.41
2019-02-17T18:59:46.747Z,100944.09
2019-02-17T19:02:14.580Z,100939.20
2019-02-17T19:04:42.369Z,100939.84
2019-02-17T19:07:10.181Z,100936.83
2019-02-17T19:09:38.012Z,100927.27
2019-02-17T19:12:05.811Z,100937.80
2019-02-17T19:14:33.605Z,100934.88
2019-02-17T19:17:02.189Z,100938.62
2019-02-17T19:19:29.984Z,100934.28
2019-02-17T19:21:57.813Z,100928.27
2019-02-17T19:24:25.868Z,100930.77
2019-02-17T19:26:53.704Z,100921.42
2019-02-17T19:29:21.488Z,100926.51
2019-02-17T19:31:49.277Z,100928.08
2019-02-17T19:34:17.092Z,100927.97
2019-02-17T19:36:44.964Z,100918.53
2019-02-17T19:39:12.837Z,100923.09
2019-02-17T19:41:40.636Z,100921.12
2019-02-17T19:44:08.414Z,100918.54
2019-02-17T19:46:36.196Z,100927.54
2019-02-17T19:49:03.963Z,100930.90
2019-02-17T19:51:31.710Z,100933.36
2019-02-17T19:53:59.494Z,100939.47
2019-02-17T19:56:27.266Z,100939.22
2019-02-17T19:58:55.049Z,100944.23
2019-02-17T20:01:22.842Z,100948.56
2019-02-17T20:03:56.297Z,100945.87
2019-02-17T20:06:25.194Z,100951.14
2019-02-17T20:08:52.985Z,100948.77
2019-02-17T20:11:20.784Z,100945.73
2019-02-17T20:13:48.592Z,100944.66
2019-02-17T20:22:37.664Z,100932.66
2019-02-17T20:25:24.934Z,100942.16
2019-02-17T20:28:42.762Z,100946.16
2019-02-17T20:31:13.926Z,100947.20
2019-02-17T20:37:51.145Z,100949.73
2019-02-17T20:53:18.073Z,100955.07
2019-02-17T20:56:05.553Z,100955.10
2019-02-17T20:58:45.857Z,100952.78
2019-02-17T21:02:28.924Z,100949.42
2019-02-17T21:05:13.937Z,100961.46
2019-02-17T21:07:54.024Z,100954.36
2019-02-17T21:10:41.276Z,100956.16
2019-02-17T21:13:21.951Z,100957.47
2019-02-17T21:19:00.856Z,100961.88
2019-02-17T21:21:48.299Z,100966.16
2019-02-17T21:24:28.901Z,100964.02
2019-02-17T21:27:16.145Z,100972.55
2019-02-17T21:29:56.832Z,100972.05
2019-02-17T21:32:44.070Z,100971.20
2019-02-17T21:35:24.092Z,100970.08
2019-02-17T21:38:11.327Z,100963.78
2019-02-17T21:40:51.258Z,100970.25
2019-02-17T21:43:38.485Z,100973.28
2019-02-17T21:46:18.438Z,100969.09
2019-02-17T21:49:05.665Z,100963.86
2019-02-17T21:51:45.705Z,100968.39
2019-02-17T21:54:32.913Z,100973.52
2019-02-17T21:57:13.413Z,100969.13
2019-02-17T22:00:00.626Z,100972.64
2019-02-17T22:02:47.952Z,100971.10
2019-02-17T22:05:28.745Z,100970.45
2019-02-17T22:08:09.589Z,100966.65
2019-02-17T22:10:56.804Z,100975.11
2019-02-17T22:13:35.208Z,100966.79
2019-02-17T22:16:15.551Z,100960.98
2019-02-17T22:19:02.794Z,100970.24
2019-02-17T22:21:43.157Z,100964.55
2019-02-17T22:24:30.374Z,100964.67
2019-02-17T22:27:11.322Z,100962.39
2019-02-17T22:29:58.550Z,100961.72
2019-02-17T22:32:39.298Z,100958.64
2019-02-17T22:35:26.516Z,100959.37
2019-02-17T22:38:07.028Z,100966.72
2019-02-17T22:40:54.486Z,100956.09
2019-02-17T22:43:35.298Z,100963.24
2019-02-17T22:46:22.923Z,100967.31
2019-02-17T22:52:29.561Z,100969.51
2019-02-17T22:56:03.608Z,100972.54
2019-02-17T22:58:43.896Z,100970.19
2019-02-17T23:01:32.328Z,100974.18
2019-02-17T23:04:13.117Z,100967.86
2019-02-17T23:07:37.669Z,100976.10
2019-02-17T23:10:20.843Z,100976.03
2019-02-17T23:13:08.213Z,100978.00
2019-02-17T23:19:01.236Z,100974.86
2019-02-17T23:24:44.316Z,100988.57
2019-02-17T23:27:31.554Z,100987.17
2019-02-17T23:30:12.328Z,100994.66
2019-02-17T23:33:36.905Z,100985.14
2019-02-17T23:36:17.730Z,100986.27
2019-02-17T23:39:18.684Z,100989.34
2019-02-17T23:42:06.269Z,100992.62
2019-02-17T23:44:47.246Z,100988.30
2019-02-17T23:47:34.683Z,100984.34
2019-02-17T23:50:22.933Z,100989.36
2019-02-17T23:53:10.161Z,100983.84
2019-02-17T23:55:51.504Z,100992.99
2019-02-17T23:58:38.928Z,100985.84
